createdAt,value
2023-02-04T00:01:07.132Z,7.00
2023-02-04T00:03:33.695Z,7.57
2023-02-04T00:06:00.323Z,8.03
2023-02-04T00:08:26.839Z,9.93
2023-02-04T00:10:53.438Z,9.33
2023-02-04T00:13:20.063Z,7.53
2023-02-04T00:15:46.607Z,7.33
2023-02-04T00:18:13.257Z,6.67
2023-02-04T00:20:39.785Z,7.20
2023-02-04T00:23:06.326Z,6.83
2023-02-04T00:25:33.019Z,7.03
2023-02-04T00:27:59.587Z,6.90
2023-02-04T00:30:26.294Z,5.80
2023-02-04T00:32:54.925Z,6.60
2023-02-04T00:35:21.742Z,6.93
2023-02-04T00:37:48.290Z,6.37
2023-02-04T00:40:14.893Z,5.77
2023-02-04T00:42:41.425Z,7.30
2023-02-04T00:45:08.716Z,5.47
2023-02-04T00:47:35.319Z,5.20
2023-02-04T00:50:01.838Z,4.80
2023-02-04T00:52:28.526Z,6.33
2023-02-04T00:54:55.121Z,6.73
2023-02-04T00:57:22.029Z,6.17
2023-02-04T00:59:48.668Z,6.37
2023-02-04T01:02:17.641Z,6.33
2023-02-04T01:04:45.087Z,6.83
2023-02-04T01:07:11.720Z,6.10
2023-02-04T01:09:38.287Z,6.50
2023-02-04T01:12:04.819Z,6.93
2023-02-04T01:14:31.586Z,5.53
2023-02-04T01:16:58.254Z,5.93
2023-02-04T01:19:26.029Z,5.87
2023-02-04T01:21:52.985Z,4.90
2023-02-04T01:24:19.514Z,5.57
2023-02-04T01:27:04.837Z,5.93
2023-02-04T01:29:31.921Z,6.43
2023-02-04T01:31:58.594Z,5.80
2023-02-04T01:34:26.088Z,4.77
2023-02-04T01:36:52.921Z,6.67
2023-02-04T01:39:19.421Z,5.83
2023-02-04T01:41:46.700Z,4.07
2023-02-04T01:44:13.417Z,5.40
2023-02-04T01:46:40.822Z,6.03
2023-02-04T01:49:09.628Z,5.10
2023-02-04T01:51:37.097Z,5.20
2023-02-04T01:54:03.935Z,6.03
2023-02-04T01:56:31.780Z,5.63
2023-02-04T01:58:58.530Z,4.17
2023-02-04T02:01:37.008Z,5.90
2023-02-04T02:04:04.441Z,4.10
2023-02-04T02:06:31.200Z,4.90
2023-02-04T02:08:58.423Z,4.90
2023-02-04T02:11:26.112Z,5.50
2023-02-04T02:13:52.771Z,5.00
2023-02-04T02:16:19.414Z,5.07
2023-02-04T02:18:46.363Z,5.37
2023-02-04T02:21:14.552Z,5.73
2023-02-04T02:23:44.157Z,4.90
2023-02-04T02:26:10.714Z,4.60
2023-02-04T02:28:37.266Z,4.37
2023-02-04T02:31:04.105Z,5.33
2023-02-04T02:33:30.779Z,4.80
2023-02-04T02:35:57.310Z,4.80
2023-02-04T02:38:24.435Z,5.40
2023-02-04T02:40:52.572Z,4.43
2023-02-04T02:43:23.476Z,4.73
2023-02-04T02:45:50.521Z,4.90
2023-02-04T02:48:17.077Z,4.50
2023-02-04T02:50:44.368Z,5.17
2023-02-04T02:53:12.622Z,4.80
2023-02-04T02:55:40.529Z,5.30
2023-02-04T02:58:14.326Z,4.53
2023-02-04T03:00:40.904Z,4.73
2023-02-04T03:03:14.243Z,5.47
2023-02-04T03:05:44.952Z,5.30
2023-02-04T03:08:12.769Z,4.90
2023-02-04T03:10:39.270Z,4.90
2023-02-04T03:13:05.873Z,4.87
2023-02-04T03:15:32.996Z,6.00
2023-02-04T03:18:00.155Z,6.63
2023-02-04T03:20:28.095Z,5.07
2023-02-04T03:22:55.678Z,6.70
2023-02-04T03:25:24.620Z,5.30
2023-02-04T03:27:51.784Z,6.10
2023-02-04T03:30:20.191Z,6.27
2023-02-04T03:32:46.790Z,6.03
2023-02-04T03:35:13.570Z,5.90
2023-02-04T03:37:40.357Z,8.00
2023-02-04T03:40:07.081Z,6.13
2023-02-04T03:42:33.958Z,8.37
2023-02-04T03:45:00.588Z,8.10
2023-02-04T03:47:27.173Z,6.40
2023-02-04T03:49:53.762Z,8.13
2023-02-04T03:52:23.375Z,8.90
2023-02-04T03:54:49.907Z,10.97
2023-02-04T03:57:16.419Z,9.17
2023-02-04T03:59:42.999Z,6.23
2023-02-04T04:02:09.945Z,5.73
2023-02-04T04:04:36.660Z,6.93
2023-02-04T04:07:03.430Z,6.03
2023-02-04T04:09:29.942Z,5.97
2023-02-04T04:11:56.527Z,6.80
2023-02-04T04:14:23.084Z,7.70
2023-02-04T04:16:49.620Z,7.00
2023-02-04T04:19:16.216Z,7.53
2023-02-04T04:21:42.719Z,5.63
2023-02-04T04:24:09.410Z,7.50
2023-02-04T04:26:36.129Z,7.90
2023-02-04T04:29:02.710Z,8.20
2023-02-04T04:31:29.390Z,7.13
2023-02-04T04:33:56.106Z,8.83
2023-02-04T04:36:22.691Z,7.80
2023-02-04T04:38:49.144Z,7.73
2023-02-04T04:41:15.699Z,8.50
2023-02-04T04:43:42.302Z,9.17
2023-02-04T04:46:08.872Z,7.10
2023-02-04T04:48:35.491Z,7.00
2023-02-04T04:51:02.844Z,9.10
2023-02-04T04:53:29.335Z,8.73
2023-02-04T04:55:55.902Z,8.73
2023-02-04T04:58:22.425Z,10.43
2023-02-04T05:00:49.097Z,7.20
2023-02-04T05:03:15.607Z,10.27
2023-02-04T05:05:42.135Z,9.10
2023-02-04T05:08:12.945Z,9.23
2023-02-04T05:10:40.358Z,8.87
2023-02-04T05:13:07.016Z,7.53
2023-02-04T05:15:33.876Z,7.80
2023-02-04T05:18:00.407Z,8.43
2023-02-04T05:20:27.017Z,9.40
2023-02-04T05:22:54.625Z,8.70
2023-02-04T05:25:21.368Z,10.00
2023-02-04T05:27:48.177Z,12.93
2023-02-04T05:30:14.961Z,8.70
2023-02-04T05:32:42.543Z,7.33
2023-02-04T05:35:09.442Z,9.10
2023-02-04T05:37:36.065Z,10.10
2023-02-04T05:40:02.784Z,8.67
2023-02-04T05:42:29.432Z,8.80
2023-02-04T05:44:55.921Z,8.50
2023-02-04T05:47:22.587Z,8.40
2023-02-04T05:49:49.166Z,8.70
2023-02-04T05:52:15.938Z,8.13
2023-02-04T05:54:42.439Z,10.47
2023-02-04T05:57:08.998Z,10.30
2023-02-04T05:59:35.785Z,9.70
2023-02-04T06:02:02.374Z,11.13
2023-02-04T06:04:28.945Z,8.80
2023-02-04T06:06:55.509Z,12.33
2023-02-04T06:09:22.293Z,13.87
2023-02-04T06:11:48.846Z,10.40
2023-02-04T06:14:15.362Z,13.60
2023-02-04T06:16:41.984Z,13.73
2023-02-04T06:19:08.583Z,12.73
2023-02-04T06:21:35.088Z,14.40
2023-02-04T06:24:01.585Z,12.77
2023-02-04T06:26:28.209Z,12.97
2023-02-04T06:28:55.076Z,14.97
2023-02-04T06:31:21.781Z,13.77
2023-02-04T06:33:48.459Z,13.20
2023-02-04T06:36:15.048Z,14.73
2023-02-04T06:38:41.548Z,14.53
2023-02-04T06:41:08.316Z,13.40
2023-02-04T06:43:34.881Z,13.33
2023-02-04T06:46:01.504Z,14.17
2023-02-04T06:48:29.636Z,14.13
2023-02-04T06:50:57.449Z,14.87
2023-02-04T06:53:23.929Z,14.27
2023-02-04T06:55:50.686Z,13.87
2023-02-04T06:58:17.357Z,14.87
2023-02-04T07:00:44.270Z,14.77
2023-02-04T07:03:10.791Z,14.97
2023-02-04T07:05:37.321Z,16.30
2023-02-04T07:08:03.917Z,14.10
2023-02-04T07:10:30.941Z,15.00
2023-02-04T07:12:57.643Z,14.23
2023-02-04T07:15:24.179Z,14.93
2023-02-04T07:17:50.717Z,15.30
2023-02-04T07:20:17.323Z,14.33
2023-02-04T07:22:43.849Z,14.83
2023-02-04T07:25:11.628Z,16.43
2023-02-04T07:27:38.142Z,18.10
2023-02-04T07:30:04.805Z,16.73
2023-02-04T07:32:33.541Z,15.40
2023-02-04T07:35:00.585Z,17.43
2023-02-04T07:37:27.228Z,17.20
2023-02-04T07:39:53.957Z,15.90
2023-02-04T07:42:20.564Z,17.40
2023-02-04T07:44:53.417Z,17.93
2023-02-04T07:47:19.988Z,16.63
2023-02-04T07:49:46.769Z,21.60
2023-02-04T07:52:13.279Z,20.33
2023-02-04T07:54:39.831Z,20.20
2023-02-04T07:57:06.454Z,17.03
2023-02-04T07:59:32.948Z,22.27
2023-02-04T08:01:59.828Z,19.90
2023-02-04T08:04:26.404Z,22.00
2023-02-04T08:06:53.095Z,21.77
2023-02-04T08:09:19.965Z,22.30
2023-02-04T08:11:46.420Z,21.87
2023-02-04T08:14:13.198Z,25.23
2023-02-04T08:16:39.749Z,23.33
2023-02-04T08:19:06.269Z,21.97
2023-02-04T08:21:32.902Z,22.23
2023-02-04T08:23:59.426Z,24.23
2023-02-04T08:26:26.265Z,23.30
2023-02-04T08:28:52.854Z,24.60
2023-02-04T08:31:19.524Z,23.37
2023-02-04T08:33:46.140Z,23.37
2023-02-04T08:36:12.760Z,25.07
2023-02-04T08:38:40.543Z,23.47
2023-02-04T08:41:07.339Z,24.37
2023-02-04T08:43:33.967Z,22.67
2023-02-04T08:46:00.880Z,22.23
2023-02-04T08:48:27.669Z,22.00
2023-02-04T08:50:54.260Z,22.40
2023-02-04T08:53:20.813Z,20.50
2023-02-04T08:55:47.365Z,20.20
2023-02-04T08:58:13.836Z,20.33
2023-02-04T09:00:41.508Z,21.20
2023-02-04T09:03:08.153Z,18.83
2023-02-04T09:05:34.946Z,17.13
2023-02-04T09:08:01.515Z,19.03
2023-02-04T09:10:28.262Z,20.87
2023-02-04T09:12:56.110Z,16.80
2023-02-04T09:15:26.753Z,19.03
2023-02-04T09:18:04.510Z,23.27
2023-02-04T09:20:31.567Z,29.10
2023-02-04T09:22:58.476Z,22.10
2023-02-04T09:25:25.123Z,20.27
2023-02-04T09:27:51.763Z,19.53
2023-02-04T09:30:18.369Z,17.13
2023-02-04T09:32:45.019Z,18.57
2023-02-04T09:35:11.645Z,17.57
2023-02-04T09:37:38.386Z,18.40
2023-02-04T09:40:05.169Z,17.53
2023-02-04T09:42:31.882Z,15.43
2023-02-04T09:45:00.823Z,16.77
2023-02-04T09:47:27.613Z,18.53
2023-02-04T09:49:54.205Z,15.40
2023-02-04T09:52:20.936Z,17.60
2023-02-04T09:54:47.491Z,17.30
2023-02-04T09:57:16.923Z,17.43
2023-02-04T09:59:45.656Z,19.40
2023-02-04T10:02:25.479Z,30.17
2023-02-04T10:04:57.624Z,22.57
2023-02-04T10:07:26.540Z,86.77
2023-02-04T10:09:54.437Z,48.40
2023-02-04T10:12:21.305Z,26.27
2023-02-04T10:14:47.958Z,38.57
2023-02-04T10:17:17.920Z,18.60
2023-02-04T10:19:44.402Z,17.77
2023-02-04T10:22:15.710Z,16.43
2023-02-04T10:24:42.297Z,15.60
2023-02-04T10:27:09.888Z,16.57
2023-02-04T10:29:36.512Z,17.40
2023-02-04T10:32:03.544Z,17.70
2023-02-04T10:34:34.484Z,15.83
2023-02-04T10:37:11.391Z,15.73
2023-02-04T10:39:42.889Z,16.20
2023-02-04T10:42:23.261Z,14.80
2023-02-04T10:44:50.103Z,15.93
2023-02-04T10:47:18.398Z,15.47
2023-02-04T10:50:00.364Z,15.70
2023-02-04T10:52:33.879Z,17.17
2023-02-04T10:55:01.216Z,15.97
2023-02-04T10:57:28.889Z,16.00
2023-02-04T11:00:00.025Z,15.87
2023-02-04T11:02:32.673Z,16.93
2023-02-04T11:04:59.419Z,17.50
2023-02-04T11:07:26.073Z,14.33
2023-02-04T11:09:52.646Z,15.83
2023-02-04T11:12:20.437Z,15.63
2023-02-04T11:14:57.253Z,16.70
2023-02-04T11:17:33.964Z,13.60
2023-02-04T11:20:01.032Z,11.30
2023-02-04T11:22:41.710Z,15.03
2023-02-04T11:25:27.117Z,13.67
2023-02-04T11:27:53.685Z,13.83
2023-02-04T11:30:21.545Z,12.17
2023-02-04T11:33:17.429Z,11.23
2023-02-04T11:35:56.914Z,12.03
2023-02-04T11:38:27.053Z,10.07
2023-02-04T11:40:57.363Z,21.63
2023-02-04T11:43:24.043Z,16.80
2023-02-04T11:46:01.139Z,10.67
2023-02-04T11:48:28.015Z,13.47
2023-02-04T11:51:01.989Z,15.60
2023-02-04T11:53:29.961Z,15.23
2023-02-04T11:55:56.462Z,16.63
2023-02-04T11:58:26.042Z,11.03
2023-02-04T12:00:53.074Z,9.67
2023-02-04T12:03:21.537Z,9.17
2023-02-04T12:05:49.500Z,14.00
2023-02-04T12:08:22.017Z,10.50
2023-02-04T12:11:09.342Z,13.27
2023-02-04T12:13:47.137Z,11.70
2023-02-04T12:16:13.708Z,11.40
2023-02-04T12:18:40.363Z,13.10
2023-02-04T12:21:07.054Z,11.23
2023-02-04T12:23:33.601Z,9.57
2023-02-04T12:26:00.276Z,10.07
2023-02-04T12:28:28.101Z,10.40
2023-02-04T12:30:55.313Z,9.97
2023-02-04T12:33:22.931Z,9.17
2023-02-04T12:35:49.472Z,10.10
2023-02-04T12:38:16.449Z,10.63
2023-02-04T12:40:43.124Z,10.20
2023-02-04T12:43:09.773Z,9.80
2023-02-04T12:45:37.741Z,11.00
2023-02-04T12:48:04.431Z,9.60
2023-02-04T12:50:30.967Z,8.37
2023-02-04T12:52:58.407Z,11.00
2023-02-04T12:55:25.978Z,9.60
2023-02-04T12:57:52.806Z,10.67
2023-02-04T13:00:20.206Z,9.80
2023-02-04T13:02:47.500Z,10.20
2023-02-04T13:05:14.586Z,9.77
2023-02-04T13:07:41.162Z,11.07
2023-02-04T13:10:08.894Z,10.30
2023-02-04T13:12:35.818Z,9.67
2023-02-04T13:15:02.464Z,12.07
2023-02-04T13:17:28.995Z,9.00
2023-02-04T13:19:55.547Z,7.80
2023-02-04T13:22:22.089Z,10.63
2023-02-04T13:24:48.623Z,9.30
2023-02-04T13:27:15.502Z,9.30
2023-02-04T13:29:42.090Z,10.77
2023-02-04T13:32:09.486Z,8.07
2023-02-04T13:34:35.977Z,9.07
2023-02-04T13:37:02.919Z,8.83
2023-02-04T13:39:29.935Z,7.70
2023-02-04T13:41:56.488Z,8.50
2023-02-04T13:44:23.103Z,10.40
2023-02-04T13:46:50.021Z,10.10
2023-02-04T13:49:16.621Z,12.10
2023-02-04T13:51:43.260Z,9.13
2023-02-04T13:54:09.840Z,10.67
2023-02-04T13:56:37.761Z,9.77
2023-02-04T13:59:04.362Z,11.30
2023-02-04T14:01:31.309Z,10.60
2023-02-04T14:03:58.027Z,9.20
2023-02-04T14:06:33.099Z,11.47
2023-02-04T14:09:03.122Z,11.80
2023-02-04T14:11:29.776Z,9.40
2023-02-04T14:13:56.654Z,10.40
2023-02-04T14:16:24.288Z,8.73
2023-02-04T14:18:50.952Z,9.80
2023-02-04T14:21:17.821Z,10.20
2023-02-04T14:23:44.662Z,10.10
2023-02-04T14:26:11.204Z,9.40
2023-02-04T14:28:37.788Z,7.73
2023-02-04T14:31:04.744Z,6.10
2023-02-04T14:33:31.298Z,8.93
2023-02-04T14:35:57.999Z,8.30
2023-02-04T14:38:24.692Z,7.60
2023-02-04T14:40:51.489Z,8.20
2023-02-04T14:43:18.037Z,9.17
2023-02-04T14:45:44.689Z,8.53
2023-02-04T14:48:11.214Z,8.37
2023-02-04T14:50:37.822Z,9.10
2023-02-04T14:53:04.473Z,8.00
2023-02-04T14:55:31.275Z,10.13
2023-02-04T14:57:58.005Z,8.97
2023-02-04T15:00:24.707Z,7.80
2023-02-04T15:02:51.401Z,9.57
2023-02-04T15:05:18.193Z,8.77
2023-02-04T15:07:45.182Z,8.70
2023-02-04T15:10:13.816Z,8.40
2023-02-04T15:12:41.951Z,9.60
2023-02-04T15:15:08.821Z,10.30
2023-02-04T15:17:35.435Z,9.00
2023-02-04T15:20:04.082Z,7.33
2023-02-04T15:22:31.100Z,8.93
2023-02-04T15:24:57.954Z,10.40
2023-02-04T15:27:26.116Z,8.27
2023-02-04T15:29:53.006Z,11.00
2023-02-04T15:32:20.075Z,11.83
2023-02-04T15:34:46.986Z,11.07
2023-02-04T15:37:13.829Z,12.10
2023-02-04T15:39:40.678Z,7.93
2023-02-04T15:42:08.525Z,9.50
2023-02-04T15:44:35.003Z,9.90
2023-02-04T15:47:01.627Z,10.10
2023-02-04T15:49:28.624Z,11.33
2023-02-04T15:51:55.406Z,12.90
2023-02-04T15:54:21.980Z,11.40
2023-02-04T15:56:48.606Z,10.53
2023-02-04T15:59:15.962Z,11.47
2023-02-04T16:01:42.669Z,11.30
2023-02-04T16:04:09.831Z,12.97
2023-02-04T16:06:36.649Z,16.97
2023-02-04T16:09:03.304Z,10.77
2023-02-04T16:11:30.188Z,13.70
2023-02-04T16:13:56.874Z,11.97
2023-02-04T16:16:23.505Z,15.00
2023-02-04T16:18:50.202Z,13.20
2023-02-04T16:21:16.891Z,12.83
2023-02-04T16:23:43.655Z,11.77
2023-02-04T16:26:10.436Z,12.53
2023-02-04T16:28:38.307Z,14.20
2023-02-04T16:31:05.177Z,13.70
2023-02-04T16:33:31.756Z,49.87
2023-02-04T16:36:03.289Z,29.17
2023-02-04T16:38:30.454Z,17.73
2023-02-04T16:40:57.260Z,22.10
2023-02-04T16:43:24.517Z,16.33
2023-02-04T16:45:51.431Z,14.30
2023-02-04T16:48:17.940Z,21.53
2023-02-04T16:50:44.496Z,22.33
2023-02-04T16:53:15.111Z,24.70
2023-02-04T16:55:45.226Z,18.47
2023-02-04T16:58:12.365Z,16.13
2023-02-04T17:00:41.998Z,18.87
2023-02-04T17:03:09.503Z,20.80
2023-02-04T17:05:36.414Z,16.00
2023-02-04T17:08:03.152Z,15.20
2023-02-04T17:10:48.485Z,16.67
2023-02-04T17:13:15.133Z,17.47
2023-02-04T17:15:41.769Z,15.47
2023-02-04T17:18:08.365Z,20.07
2023-02-04T17:20:35.037Z,15.70
2023-02-04T17:23:01.643Z,17.13
2023-02-04T17:25:28.207Z,12.70
2023-02-04T17:27:56.513Z,12.27
2023-02-04T17:30:23.396Z,14.00
2023-02-04T17:32:49.891Z,14.30
2023-02-04T17:35:17.340Z,17.80
2023-02-04T17:37:43.889Z,18.37
2023-02-04T17:40:13.046Z,16.10
2023-02-04T17:42:40.445Z,17.57
2023-02-04T17:45:07.534Z,13.20
2023-02-04T17:47:34.045Z,11.73
2023-02-04T17:50:00.880Z,16.07
2023-02-04T17:52:27.480Z,20.10
2023-02-04T17:54:53.997Z,22.63
2023-02-04T17:57:21.094Z,16.97
2023-02-04T17:59:48.534Z,18.87
2023-02-04T18:02:29.711Z,16.30
2023-02-04T18:05:01.028Z,13.63
2023-02-04T18:07:27.790Z,13.53
2023-02-04T18:10:01.061Z,15.40
2023-02-04T18:12:27.641Z,19.23
2023-02-04T18:14:54.504Z,14.50
2023-02-04T18:17:21.260Z,16.77
2023-02-04T18:19:47.829Z,17.80
2023-02-04T18:22:16.827Z,17.47
2023-02-04T18:24:45.555Z,18.00
2023-02-04T18:27:18.108Z,18.97
2023-02-04T18:29:50.064Z,13.87
2023-02-04T18:32:49.472Z,15.53
2023-02-04T18:35:23.161Z,12.27
2023-02-04T18:37:51.537Z,11.73
2023-02-04T18:40:22.158Z,11.97
2023-02-04T18:42:49.886Z,11.20
2023-02-04T18:45:27.655Z,23.47
2023-02-04T18:47:58.435Z,12.47
2023-02-04T18:50:29.867Z,11.67
2023-02-04T18:53:00.450Z,9.77
2023-02-04T18:55:31.963Z,19.67
2023-02-04T18:58:12.948Z,23.00
2023-02-04T19:00:39.596Z,42.17
2023-02-04T19:03:18.285Z,14.70
2023-02-04T19:05:49.284Z,14.53
2023-02-04T19:08:22.392Z,13.43
2023-02-04T19:10:49.611Z,13.00
2023-02-04T19:13:25.668Z,13.43
2023-02-04T19:16:03.916Z,15.70
2023-02-04T19:18:42.463Z,19.10
2023-02-04T19:21:27.374Z,18.57
2023-02-04T19:24:23.653Z,18.47
2023-02-04T19:26:55.232Z,17.80
2023-02-04T19:29:21.999Z,18.60
2023-02-04T19:31:49.546Z,14.50
2023-02-04T19:34:22.510Z,24.87
2023-02-04T19:36:49.241Z,22.53
2023-02-04T19:39:38.717Z,20.37
2023-02-04T19:42:23.144Z,21.13
2023-02-04T19:44:51.232Z,17.90
2023-02-04T19:47:32.599Z,16.50
2023-02-04T19:50:05.264Z,14.10
2023-02-04T19:52:36.445Z,10.33
2023-02-04T19:55:18.368Z,12.90
2023-02-04T19:57:46.384Z,13.50
2023-02-04T20:00:26.458Z,10.47
2023-02-04T20:02:53.243Z,10.93
2023-02-04T20:05:21.642Z,12.17
2023-02-04T20:07:48.450Z,12.80
2023-02-04T20:10:25.012Z,14.23
2023-02-04T20:12:54.223Z,14.70
2023-02-04T20:15:23.547Z,16.37
2023-02-04T20:17:51.265Z,16.13
2023-02-04T20:20:17.850Z,15.47
2023-02-04T20:22:45.858Z,17.80
2023-02-04T20:25:18.898Z,17.17
2023-02-04T20:27:46.357Z,17.83
2023-02-04T20:30:12.832Z,17.47
2023-02-04T20:32:44.945Z,21.27
2023-02-04T20:35:20.813Z,23.37
2023-02-04T20:37:55.016Z,21.77
2023-02-04T20:40:21.586Z,21.93
2023-02-04T20:43:10.166Z,20.60
2023-02-04T20:45:38.181Z,22.60
2023-02-04T20:48:17.285Z,20.40
2023-02-04T20:50:53.979Z,20.90
2023-02-04T20:53:37.501Z,21.03
2023-02-04T20:56:13.276Z,20.70
2023-02-04T20:58:45.723Z,21.47
2023-02-04T21:01:18.662Z,22.63
2023-02-04T21:03:45.859Z,25.17
2023-02-04T21:06:29.093Z,22.47
2023-02-04T21:08:57.198Z,24.30
2023-02-04T21:11:24.748Z,26.60
2023-02-04T21:13:52.624Z,25.77
2023-02-04T21:16:19.714Z,26.33
2023-02-04T21:18:47.521Z,25.70
2023-02-04T21:21:14.495Z,27.70
2023-02-04T21:23:41.022Z,27.40
2023-02-04T21:26:08.120Z,27.73
2023-02-04T21:28:34.854Z,27.63
2023-02-04T21:31:01.551Z,29.47
2023-02-04T21:33:28.372Z,28.60
2023-02-04T21:35:55.161Z,28.70
2023-02-04T21:38:21.959Z,27.80
2023-02-04T21:40:48.713Z,27.63
2023-02-04T21:43:15.373Z,29.33
2023-02-04T21:45:41.976Z,27.73
2023-02-04T21:48:08.604Z,29.97
2023-02-04T21:50:36.375Z,27.50
2023-02-04T21:53:03.182Z,30.97
2023-02-04T21:55:31.697Z,31.67
2023-02-04T21:57:58.542Z,32.30
2023-02-04T22:00:25.377Z,34.37
2023-02-04T22:02:52.520Z,36.40
2023-02-04T22:05:20.078Z,37.07
2023-02-04T22:07:46.737Z,35.40
2023-02-04T22:10:15.206Z,37.43
2023-02-04T22:12:41.840Z,40.13
2023-02-04T22:15:09.166Z,34.97
2023-02-04T22:17:35.846Z,35.13
2023-02-04T22:20:02.460Z,34.80
2023-02-04T22:22:29.133Z,36.67
2023-02-04T22:24:55.917Z,37.40
2023-02-04T22:27:23.039Z,37.97
2023-02-04T22:29:50.041Z,36.70
2023-02-04T22:32:16.782Z,35.10
2023-02-04T22:34:43.438Z,34.67
2023-02-04T22:37:10.193Z,37.90
2023-02-04T22:39:36.844Z,35.20
2023-02-04T22:42:03.586Z,38.20
2023-02-04T22:44:30.356Z,36.13
2023-02-04T22:46:57.036Z,39.97
2023-02-04T22:49:23.656Z,41.63
2023-02-04T22:51:50.286Z,38.40
2023-02-04T22:54:17.020Z,37.17
2023-02-04T22:56:43.605Z,37.97
2023-02-04T22:59:10.170Z,43.17
2023-02-04T23:01:36.832Z,40.03
2023-02-04T23:04:03.396Z,42.20
2023-02-04T23:06:30.120Z,42.87
2023-02-04T23:08:56.687Z,45.27
2023-02-04T23:11:24.835Z,44.87
2023-02-04T23:13:51.413Z,51.27
2023-02-04T23:16:19.060Z,50.27
2023-02-04T23:18:45.794Z,47.10
2023-02-04T23:21:12.997Z,49.00
2023-02-04T23:23:39.640Z,50.60
2023-02-04T23:26:06.114Z,49.37
2023-02-04T23:28:32.942Z,48.77
2023-02-04T23:30:59.756Z,50.10
2023-02-04T23:33:26.333Z,51.03
2023-02-04T23:35:52.810Z,51.37
2023-02-04T23:38:19.320Z,49.67
2023-02-04T23:40:45.841Z,50.80
2023-02-04T23:43:12.419Z,46.03
2023-02-04T23:45:39.078Z,41.80
2023-02-04T23:48:05.795Z,47.77
2023-02-04T23:50:32.836Z,53.67
2023-02-04T23:52:59.390Z,55.80
2023-02-04T23:55:26.226Z,53.03
2023-02-04T23:57:52.820Z,53.40
